Echo Valley, Pennsylvania
Current Conditions -  °F | °C
As of 7:15 PM on Monday 20 Oct 2014 (Local Time) from KMUI Reporting Station
Broken Clouds Broken Clouds  
Wind Chill: 12°   Ceiling: 7000
Heat Index: 12°   Visibility: 10mi
Dew Point: 10°   Wind: 1mph
Humidity: 88%   Direction: 330°NNW
Pressure: 29.95"   Gusts: NA
Location:  40.6079°N, 76.4334°W
Report Text: KMUI 202315Z AUTO 33001KT 10SM BKN070 12/10 A2995 RMK AO2 DZB2306E2315 $
Loading
Personal Weather Stations






























Interactive Weather Map
Tropical Storm Tracking
New forecast layout! Learn more

10-Day Weather Forecast

Advertisements
Track Severe Weather on mobile